Relevés horaires Beauvechain (Belgique)


Relevés horaires à Beauvechain - Mercredi 25 Juill. 2018
Heure UTC1 Température [°C] Vent [km/h] Hum. [%] Pres.4 [hPa] Visi. [Km] Nébu. [octa] Préc.5 [mm] Cond.
2m. Res. Ros. Dir.2 Vit. Moy. Raf.3
23:00 23.2 23.2 15.0 NNO 1.9 -- 1.9 60 1015.3(-0.2/3h) 20 -- -- --
22:00 24.2 24.2 15.4 NNO 1.9 -- 1.9 58 1015.2(0.1/3h) 20 -- -- --
21:00 24.1 24.1 16.6 NNO 1.9 -- 22.2 63 1015.3(0.3/3h) 20 -- -- NA
20:00 24.0 24.0 18.0 NNE 3.7 -- 13.0 69 1015.6(1.0/3h) 20 -- -- NA
19:00 24.5 24.5 18.1 N 9.3 -- 22.2 68 1015.2(0.6/3h) 20 -- -- Il y a de la pluie faible et continue à la station au moment de l'observation
18:00 29.7 29.7 14.4 N 7.4 -- 14.8 39 1014.8(0.3/3h) 20 -- -- --
17:00 30.0 30.0 14.8 N 9.3 -- 14.8 40 1014.2(-0.5/3h) 20 -- -- --
16:00 30.3 30.3 14.4 N 5.6 -- 11.1 38 1014.2(-0.9/3h) 20 1/8 -- --
15:00 31.4 31.4 14.7 NNE 5.6 -- 11.1 36 1014.3(-1.0/3h) 20 1/8 -- --
14:00 30.8 30.8 14.4 ENE 3.7 -- 11.1 37 1014.7(-1.0/3h) 20 1/8 -- --
13:00 31.0 31.0 14.8 N 3.7 -- 11.1 37 1015.1(-0.7/3h) 20 1/8 -- --
12:00 30.5 30.5 14.7 N 9.3 -- 11.1 38 1015.6(-0.4/3h) 20 1/8 -- --
11:00 29.7 29.7 15.0 N 7.4 -- 11.1 41 1015.8(-0.1/3h) 20 1/8 -- --
10:00 29.3 29.3 15.0 ENE 5.6 -- 11.1 42 1016(-0.1/3h) 20 2/8 -- --
09:00 26.8 26.8 14.5 NE 7.4 -- 11.1 47 1016.1(0.0/3h) 20 2/8 -- --
08:00 25.6 25.6 14.6 NNE 7.4 -- 11.1 51 1016.2(0.6/3h) 20 2/8 -- --
06:00 21.2 21.2 15.2 NNO 5.6 -- 7.4 69 1016.2(1.0/3h) 20 3/8 -- --
05:00 19.7 19.7 15.2 NNO 1.9 -- 3.7 75 1015.8(0.8/3h) 20 5/8 -- --
04:00 19.2 19.2 14.8 NNO 1.9 -- 3.7 76 1015.7(0.7/3h) 20 5/8 -- --
03:00 20.3 20.3 14.4 NNO 1.9 -- 5.6 69 1015.2(0.4/3h) 20 -- -- --
02:00 20.3 20.3 14.4 NNO 1.9 -- 5.6 69 1015(0.2/3h) 20 -- -- --
01:00 21.2 21.2 13.9 NNO 1.9 -- 5.6 63 1014.8(0.1/3h) 20 -- -- --
00:00 23.1 23.1 13.3 NE 3.7 -- 11.1 54 1014.7(0.2/3h) 20 -- -- --

1 Coordinated Universal Time. Actuellement il est 18:00 locale et 17:00 UTC.

2 Le vent souffle depuis la direction indiquée vers la direction oposée.

3 Les rafales max. sont disponible 40 min après l'heure du relevé.

4 Pour les stations d'altitude (plus de 600m) le géopotentiel du niveau le plus proche de la pression obligatoire est indiqué.

5 Les stations disposant d'un diffuseur peuvent indiquer "trace". Cela signifie que des précipitations ont touchés le sol mais que la quantité est inférieure à 0.1 mm.

Récapitulatif de la journée
Température [°C] Vent [km/h] Ensoleillement4 [h] Precipitations totale5 [mm] Pression [Hpa]
Min1 Max.2 Moy.3 Max. Min Max.
19.2 32.4 0 22.2 0 h 0 min 0 1014.2 1016.2

1 Température minimale relevée entre 18:00 UTC la veille et 18:00 UTC le jour donné.

2 Température maximale relevée entre 06:00 UTC le jour donné et 06:00 UTC le lendemain.

3 Vent moyen de la journée basé sur les relevés horaires.

4 Ensoleillement en heures relevé entre 06:00 UTC la veille et 06:00 UTC le jour donné.

5 Précipitations totales tombées entre 06:00 UTC la jour donné et 06:00 UTC le lendemain.

Graphiques horaires